createdAt,value
2023-05-18T00:01:23.149Z,8.16
2023-05-18T00:04:06.667Z,8.19
2023-05-18T00:06:51.532Z,8.18
2023-05-18T00:09:50.127Z,8.20
2023-05-18T00:12:38.558Z,8.16
2023-05-18T00:15:22.736Z,8.18
2023-05-18T00:17:50.887Z,8.23
2023-05-18T00:20:18.865Z,8.17
2023-05-18T00:22:48.430Z,8.21
2023-05-18T00:25:15.370Z,8.19
2023-05-18T00:27:42.292Z,8.12
2023-05-18T00:30:09.826Z,8.10
2023-05-18T00:32:36.777Z,8.06
2023-05-18T00:35:04.026Z,8.12
2023-05-18T00:37:30.951Z,8.05
2023-05-18T00:39:57.902Z,8.10
2023-05-18T00:42:24.880Z,8.07
2023-05-18T00:44:51.793Z,8.13
2023-05-18T00:47:21.187Z,8.07
2023-05-18T00:49:48.202Z,8.00
2023-05-18T00:52:16.588Z,8.06
2023-05-18T00:54:43.942Z,8.02
2023-05-18T00:57:10.928Z,8.09
2023-05-18T00:59:37.890Z,7.98
2023-05-18T01:02:05.928Z,7.95
2023-05-18T01:04:33.050Z,8.08
2023-05-18T01:07:16.388Z,8.07
2023-05-18T01:10:03.452Z,8.02
2023-05-18T01:12:58.856Z,8.08
2023-05-18T01:16:05.982Z,8.14
2023-05-18T01:19:15.299Z,8.06
2023-05-18T01:21:54.386Z,8.11
2023-05-18T01:24:32.137Z,8.16
2023-05-18T01:27:01.190Z,8.18
2023-05-18T01:29:31.221Z,8.12
2023-05-18T01:31:58.479Z,8.18
2023-05-18T01:34:25.785Z,8.18
2023-05-18T01:36:52.776Z,8.22
2023-05-18T01:39:19.826Z,8.17
2023-05-18T01:41:55.523Z,7.96
2023-05-18T01:44:34.500Z,8.00
2023-05-18T01:47:12.713Z,8.05
2023-05-18T01:49:44.743Z,7.99
2023-05-18T01:52:23.316Z,8.00
2023-05-18T01:54:56.942Z,7.94
2023-05-18T01:57:27.488Z,7.91
2023-05-18T01:59:55.699Z,7.95
2023-05-18T02:02:22.811Z,7.98
2023-05-18T02:04:49.898Z,7.96
2023-05-18T02:07:16.903Z,7.92
2023-05-18T02:09:44.635Z,7.92
2023-05-18T02:12:12.032Z,7.80
2023-05-18T02:14:39.497Z,7.88
2023-05-18T02:17:07.397Z,7.81
2023-05-18T02:19:38.404Z,7.97
2023-05-18T02:22:07.180Z,7.88
2023-05-18T02:24:34.779Z,7.90
2023-05-18T02:27:02.360Z,7.84
2023-05-18T02:29:29.286Z,7.84
2023-05-18T02:31:56.408Z,7.79
2023-05-18T02:34:24.968Z,7.78
2023-05-18T02:36:51.975Z,7.80
2023-05-18T02:39:18.924Z,7.70
2023-05-18T02:41:46.046Z,7.79
2023-05-18T02:44:13.299Z,7.79
2023-05-18T02:46:42.320Z,7.70
2023-05-18T02:49:10.441Z,7.67
2023-05-18T02:51:39.365Z,7.68
2023-05-18T02:54:08.333Z,7.46
2023-05-18T02:56:35.510Z,7.67
2023-05-18T02:59:06.587Z,7.55
2023-05-18T03:01:37.556Z,7.68
2023-05-18T03:04:04.632Z,7.75
2023-05-18T03:06:32.493Z,7.74
2023-05-18T03:08:59.452Z,7.70
2023-05-18T03:11:29.323Z,7.76
2023-05-18T03:13:56.423Z,7.78
2023-05-18T03:16:28.574Z,7.69
2023-05-18T03:18:56.093Z,7.63
2023-05-18T03:21:23.111Z,7.68
2023-05-18T03:23:50.056Z,7.67
2023-05-18T03:26:17.123Z,7.60
2023-05-18T03:28:44.059Z,7.56
2023-05-18T03:31:11.313Z,7.69
2023-05-18T03:33:40.697Z,7.71
2023-05-18T03:36:08.931Z,7.73
2023-05-18T03:38:36.713Z,7.62
2023-05-18T03:41:04.588Z,7.57
2023-05-18T03:43:33.157Z,7.61
2023-05-18T03:46:00.616Z,7.66
2023-05-18T03:48:28.383Z,7.56
2023-05-18T03:50:55.749Z,7.52
2023-05-18T03:53:23.939Z,7.66
2023-05-18T03:55:52.409Z,7.68
2023-05-18T03:58:22.883Z,7.63
2023-05-18T04:00:51.294Z,7.68
2023-05-18T04:03:18.378Z,7.69
2023-05-18T04:05:46.187Z,7.72
2023-05-18T04:08:16.233Z,7.62
2023-05-18T04:10:43.953Z,7.67
2023-05-18T04:13:11.662Z,7.70
2023-05-18T04:15:38.819Z,7.84
2023-05-18T04:18:05.858Z,7.85
2023-05-18T04:20:32.945Z,7.78
2023-05-18T04:23:00.344Z,7.78
2023-05-18T04:25:28.565Z,7.83
2023-05-18T04:27:56.848Z,7.76
2023-05-18T04:30:23.942Z,7.71
2023-05-18T04:32:51.262Z,7.73
2023-05-18T04:35:18.808Z,7.83
2023-05-18T04:37:45.851Z,7.92
2023-05-18T04:40:14.310Z,7.85
2023-05-18T04:42:45.838Z,7.86
2023-05-18T04:45:16.643Z,7.89
2023-05-18T04:47:47.597Z,7.74
2023-05-18T04:50:17.894Z,7.72
2023-05-18T04:52:49.275Z,7.79
2023-05-18T04:55:26.590Z,7.95
2023-05-18T04:57:57.128Z,7.86
2023-05-18T05:00:29.487Z,8.04
2023-05-18T05:02:58.186Z,8.07
2023-05-18T05:05:26.565Z,8.02
2023-05-18T05:07:54.064Z,8.02
2023-05-18T05:10:21.956Z,8.12
2023-05-18T05:12:51.278Z,8.11
2023-05-18T05:15:19.065Z,8.10
2023-05-18T05:17:49.657Z,8.08
2023-05-18T05:20:17.094Z,8.17
2023-05-18T05:22:44.117Z,8.27
2023-05-18T05:25:11.555Z,8.34
2023-05-18T05:27:38.723Z,8.45
2023-05-18T05:30:06.356Z,8.27
2023-05-18T05:32:33.528Z,8.28
2023-05-18T05:35:00.503Z,8.34
2023-05-18T05:37:27.485Z,8.30
2023-05-18T05:39:54.579Z,8.31
2023-05-18T05:42:21.757Z,8.34
2023-05-18T05:44:48.712Z,8.30
2023-05-18T05:47:15.916Z,8.23
2023-05-18T05:49:42.848Z,8.20
2023-05-18T05:52:09.767Z,8.34
2023-05-18T05:54:36.708Z,8.27
2023-05-18T05:57:04.169Z,8.31
2023-05-18T05:59:31.120Z,8.28
2023-05-18T06:01:58.176Z,8.35
2023-05-18T06:04:25.282Z,8.26
2023-05-18T06:06:52.329Z,8.33
2023-05-18T06:09:19.286Z,8.39
2023-05-18T06:11:46.323Z,8.60
2023-05-18T06:14:13.419Z,8.73
2023-05-18T06:16:40.471Z,8.66
2023-05-18T06:19:07.516Z,8.72
2023-05-18T06:21:34.611Z,8.67
2023-05-18T06:24:02.194Z,8.75
2023-05-18T06:26:29.380Z,8.73
2023-05-18T06:28:56.459Z,8.68
2023-05-18T06:31:23.866Z,8.89
2023-05-18T06:33:50.995Z,9.05
2023-05-18T06:36:17.939Z,9.08
2023-05-18T06:38:45.010Z,9.09
2023-05-18T06:41:12.138Z,9.04
2023-05-18T06:43:39.109Z,9.09
2023-05-18T06:46:06.286Z,9.08
2023-05-18T06:48:33.257Z,9.23
2023-05-18T06:51:00.215Z,9.27
2023-05-18T06:53:27.630Z,9.34
2023-05-18T06:55:54.576Z,9.48
2023-05-18T06:58:21.739Z,9.50
2023-05-18T07:00:49.559Z,9.35
2023-05-18T07:03:16.768Z,9.45
2023-05-18T07:05:43.795Z,9.53
2023-05-18T07:08:10.851Z,9.63
2023-05-18T07:10:37.969Z,9.62
2023-05-18T07:13:04.912Z,9.48
2023-05-18T07:15:32.214Z,9.58
2023-05-18T07:17:59.444Z,9.57
2023-05-18T07:20:27.080Z,9.70
2023-05-18T07:22:56.047Z,9.70
2023-05-18T07:25:23.740Z,9.41
2023-05-18T07:27:52.427Z,9.40
2023-05-18T07:30:19.448Z,9.69
2023-05-18T07:32:46.537Z,9.90
2023-05-18T07:35:13.525Z,9.74
2023-05-18T07:37:40.484Z,9.98
2023-05-18T07:40:10.066Z,9.90
2023-05-18T07:42:39.732Z,10.05
2023-05-18T07:45:08.138Z,9.90
2023-05-18T07:47:35.178Z,9.82
2023-05-18T07:50:02.334Z,9.46
2023-05-18T07:52:29.300Z,9.73
2023-05-18T07:54:59.954Z,9.72
2023-05-18T07:57:27.336Z,9.63
2023-05-18T07:59:54.353Z,9.73
2023-05-18T08:02:21.374Z,9.84
2023-05-18T08:04:48.765Z,9.69
2023-05-18T08:07:15.748Z,9.75
2023-05-18T08:09:42.716Z,9.85
2023-05-18T08:12:09.798Z,10.01
2023-05-18T08:14:36.847Z,9.97
2023-05-18T08:17:05.028Z,9.93
2023-05-18T08:19:32.137Z,10.03
2023-05-18T08:21:59.284Z,10.10
2023-05-18T08:24:26.325Z,10.18
2023-05-18T08:26:53.497Z,10.11
2023-05-18T08:29:20.591Z,10.19
2023-05-18T08:31:49.195Z,10.15
2023-05-18T08:34:16.863Z,9.95
2023-05-18T08:36:46.008Z,10.13
2023-05-18T08:39:13.381Z,9.92
2023-05-18T08:41:49.138Z,9.89
2023-05-18T08:44:21.343Z,10.05
2023-05-18T08:46:51.697Z,10.06
2023-05-18T08:49:21.029Z,10.11
2023-05-18T08:51:54.738Z,10.06
2023-05-18T08:54:23.313Z,10.03
2023-05-18T08:56:52.868Z,10.26
2023-05-18T08:59:24.545Z,10.24
2023-05-18T09:01:52.709Z,10.44
2023-05-18T09:04:21.209Z,10.50
2023-05-18T09:06:49.813Z,10.68
2023-05-18T09:09:18.566Z,10.39
2023-05-18T09:11:47.476Z,10.39
2023-05-18T09:14:14.761Z,10.38
2023-05-18T09:16:41.812Z,10.64
2023-05-18T09:19:08.882Z,10.41
2023-05-18T09:21:36.076Z,10.39
2023-05-18T09:24:03.593Z,10.32
2023-05-18T09:26:31.204Z,10.48
2023-05-18T09:28:59.712Z,10.70
2023-05-18T09:31:28.082Z,10.66
2023-05-18T09:33:55.191Z,10.66
2023-05-18T09:36:26.602Z,10.45
2023-05-18T09:38:53.721Z,10.44
2023-05-18T09:41:22.046Z,10.25
2023-05-18T09:43:49.345Z,10.47
2023-05-18T09:46:16.395Z,10.61
2023-05-18T09:48:46.313Z,10.46
2023-05-18T09:51:17.100Z,10.25
2023-05-18T09:53:49.799Z,10.31
2023-05-18T09:56:18.353Z,10.44
2023-05-18T09:58:46.309Z,10.24
2023-05-18T10:01:13.606Z,10.10
2023-05-18T10:03:40.774Z,10.07
2023-05-18T10:06:14.881Z,9.85
2023-05-18T10:08:42.050Z,10.17
2023-05-18T10:11:09.470Z,10.37
2023-05-18T10:13:36.507Z,10.55
2023-05-18T10:16:06.167Z,10.55
2023-05-18T10:18:35.887Z,10.55
2023-05-18T10:21:06.098Z,10.48
2023-05-18T10:23:35.905Z,10.45
2023-05-18T10:26:08.114Z,10.46
2023-05-18T10:28:50.370Z,10.74
2023-05-18T10:31:17.484Z,10.82
2023-05-18T10:33:46.649Z,11.00
2023-05-18T10:36:13.745Z,10.93
2023-05-18T10:38:45.543Z,10.81
2023-05-18T10:41:12.967Z,10.86
2023-05-18T10:43:42.239Z,10.81
2023-05-18T10:46:10.178Z,10.70
2023-05-18T10:48:41.132Z,10.72
2023-05-18T10:51:08.633Z,10.65
2023-05-18T10:53:37.009Z,10.55
2023-05-18T10:56:04.606Z,10.54
2023-05-18T10:58:33.078Z,10.61
2023-05-18T11:01:03.492Z,10.48
2023-05-18T11:03:33.447Z,10.39
2023-05-18T11:06:11.759Z,10.58
2023-05-18T11:08:49.642Z,10.78
2023-05-18T11:11:19.354Z,10.87
2023-05-18T11:13:50.530Z,10.89
2023-05-18T11:16:18.838Z,10.89
2023-05-18T11:18:46.800Z,10.82
2023-05-18T11:21:29.201Z,11.10
2023-05-18T11:24:25.490Z,11.07
2023-05-18T11:26:54.836Z,10.65
2023-05-18T11:29:34.502Z,10.53
2023-05-18T11:32:02.729Z,10.51
2023-05-18T11:34:50.216Z,10.57
2023-05-18T11:37:38.366Z,10.61
2023-05-18T11:40:13.980Z,10.65
2023-05-18T11:42:40.967Z,10.40
2023-05-18T11:45:13.041Z,10.52
2023-05-18T11:47:41.535Z,10.60
2023-05-18T11:50:12.049Z,10.61
2023-05-18T11:52:51.707Z,10.78
2023-05-18T11:55:21.227Z,10.51
2023-05-18T11:57:52.926Z,10.49
2023-05-18T12:00:20.681Z,10.52
2023-05-18T12:02:49.530Z,10.60
2023-05-18T12:05:17.492Z,10.48
2023-05-18T12:07:45.320Z,10.34
2023-05-18T12:10:17.469Z,10.26
2023-05-18T12:12:49.545Z,10.33
2023-05-18T12:15:17.456Z,10.41
2023-05-18T12:17:49.077Z,10.43
2023-05-18T12:20:21.698Z,10.44
2023-05-18T12:22:52.800Z,10.46
2023-05-18T12:25:21.864Z,10.38
2023-05-18T12:27:50.009Z,10.45
2023-05-18T12:30:21.742Z,10.40
2023-05-18T12:32:54.294Z,10.38
2023-05-18T12:35:24.575Z,10.57
2023-05-18T12:37:52.124Z,10.59
2023-05-18T12:40:20.771Z,10.66
2023-05-18T12:42:55.203Z,10.81
2023-05-18T12:45:27.959Z,10.77
2023-05-18T12:47:56.448Z,10.65
2023-05-18T12:50:27.125Z,10.37
2023-05-18T12:52:56.755Z,10.51
2023-05-18T12:55:25.478Z,10.33
2023-05-18T12:58:04.019Z,10.38
2023-05-18T13:00:35.736Z,10.27
2023-05-18T13:03:14.815Z,10.25
2023-05-18T13:05:47.087Z,10.11
2023-05-18T13:08:16.653Z,9.88
2023-05-18T13:10:44.382Z,9.70
2023-05-18T13:13:15.163Z,9.60
2023-05-18T13:15:43.980Z,9.54
2023-05-18T13:18:12.248Z,9.73
2023-05-18T13:20:51.103Z,9.88
2023-05-18T13:23:20.107Z,9.72
2023-05-18T13:25:47.832Z,9.91
2023-05-18T13:28:17.150Z,9.76
2023-05-18T13:30:47.398Z,9.75
2023-05-18T13:33:15.246Z,9.90
2023-05-18T13:35:43.271Z,10.02
2023-05-18T13:38:14.374Z,10.06
2023-05-18T13:40:42.233Z,10.04
2023-05-18T13:43:11.193Z,9.96
2023-05-18T13:45:40.542Z,10.12
2023-05-18T13:48:10.090Z,10.15
2023-05-18T13:50:37.944Z,10.17
2023-05-18T13:53:05.117Z,10.07
2023-05-18T13:55:33.494Z,9.86
2023-05-18T13:58:01.172Z,9.97
2023-05-18T14:00:28.369Z,10.11
2023-05-18T14:02:56.871Z,10.12
2023-05-18T14:05:24.325Z,10.31
2023-05-18T14:07:54.672Z,10.12
2023-05-18T14:10:21.799Z,10.34
2023-05-18T14:12:48.952Z,10.38
2023-05-18T14:15:16.157Z,10.12
2023-05-18T14:17:43.944Z,10.00
2023-05-18T14:20:12.843Z,10.06
2023-05-18T14:22:41.021Z,10.15
2023-05-18T14:25:08.445Z,10.22
2023-05-18T14:27:35.425Z,10.06
2023-05-18T14:30:02.708Z,10.07
2023-05-18T14:32:29.872Z,9.87
2023-05-18T14:35:00.295Z,9.76
2023-05-18T14:37:27.302Z,9.73
2023-05-18T14:39:54.216Z,9.63
2023-05-18T14:42:21.290Z,9.48
2023-05-18T14:44:48.316Z,9.61
2023-05-18T14:47:15.370Z,9.58
2023-05-18T14:49:42.320Z,9.50
2023-05-18T14:52:09.556Z,9.54
2023-05-18T14:54:36.914Z,9.53
2023-05-18T14:57:04.238Z,9.48
2023-05-18T14:59:31.355Z,9.48
2023-05-18T15:01:58.499Z,9.71
2023-05-18T15:04:26.018Z,9.72
2023-05-18T15:06:53.069Z,9.62
2023-05-18T15:09:20.024Z,9.43
2023-05-18T15:11:46.997Z,9.52
2023-05-18T15:14:14.028Z,9.43
2023-05-18T15:16:41.325Z,8.97
2023-05-18T15:19:08.610Z,9.36
2023-05-18T15:21:35.631Z,9.36
2023-05-18T15:24:02.590Z,9.45
2023-05-18T15:26:29.581Z,9.55
2023-05-18T15:28:56.720Z,9.51
2023-05-18T15:31:23.708Z,9.32
2023-05-18T15:33:50.832Z,9.35
2023-05-18T15:36:17.871Z,9.19
2023-05-18T15:38:45.085Z,9.22
2023-05-18T15:41:12.076Z,9.21
2023-05-18T15:43:39.547Z,9.37
2023-05-18T15:46:06.665Z,9.23
2023-05-18T15:48:33.724Z,9.24
2023-05-18T15:51:00.645Z,9.00
2023-05-18T15:53:27.663Z,8.79
2023-05-18T15:55:58.689Z,8.95
2023-05-18T15:58:27.016Z,8.96
2023-05-18T16:00:54.305Z,8.95
2023-05-18T16:03:21.511Z,8.95
2023-05-18T16:05:48.707Z,8.93
2023-05-18T16:08:15.733Z,8.85
2023-05-18T16:10:42.694Z,8.73
2023-05-18T16:13:09.707Z,8.82
2023-05-18T16:15:36.908Z,8.84
2023-05-18T16:18:04.203Z,8.85
2023-05-18T16:20:31.377Z,8.92
2023-05-18T16:22:59.204Z,8.93
2023-05-18T16:25:26.792Z,8.89
2023-05-18T16:27:53.862Z,8.93
2023-05-18T16:30:20.986Z,8.88
2023-05-18T16:32:48.248Z,8.92
2023-05-18T16:35:15.371Z,8.94
2023-05-18T16:37:42.526Z,8.90
2023-05-18T16:40:10.037Z,8.88
2023-05-18T16:42:37.028Z,8.87
2023-05-18T16:45:04.285Z,8.78
2023-05-18T16:47:32.878Z,8.82
2023-05-18T16:50:00.945Z,8.87
2023-05-18T16:52:28.884Z,8.87
2023-05-18T16:54:56.917Z,8.86
2023-05-18T16:57:27.477Z,8.88
2023-05-18T16:59:55.524Z,8.92
2023-05-18T17:02:24.772Z,8.90
2023-05-18T17:04:52.763Z,8.72
2023-05-18T17:07:20.030Z,8.95
2023-05-18T17:09:47.759Z,9.00
2023-05-18T17:12:14.770Z,8.94
2023-05-18T17:14:42.088Z,8.91
2023-05-18T17:17:09.852Z,8.93
2023-05-18T17:19:37.228Z,8.90
2023-05-18T17:22:05.045Z,8.87
2023-05-18T17:24:32.432Z,8.88
2023-05-18T17:27:00.035Z,8.83
2023-05-18T17:29:28.143Z,8.78
2023-05-18T17:31:56.120Z,8.81
2023-05-18T17:34:23.934Z,8.76
2023-05-18T17:36:51.401Z,8.73
2023-05-18T17:39:20.717Z,8.69
2023-05-18T17:41:48.509Z,8.55
2023-05-18T17:44:17.255Z,8.51
2023-05-18T17:46:46.533Z,8.54
2023-05-18T17:49:15.596Z,8.58
2023-05-18T17:51:43.373Z,8.61
2023-05-18T17:54:11.726Z,8.63
2023-05-18T17:56:40.004Z,8.62
2023-05-18T17:59:08.096Z,8.60
2023-05-18T18:01:36.301Z,8.40
2023-05-18T18:04:05.494Z,8.41
2023-05-18T18:06:36.313Z,8.46
2023-05-18T18:09:07.672Z,8.30
2023-05-18T18:11:35.975Z,8.40
2023-05-18T18:14:03.860Z,8.39
2023-05-18T18:16:31.643Z,8.36
2023-05-18T18:19:00.226Z,8.29
2023-05-18T18:21:27.867Z,8.17
2023-05-18T18:23:55.274Z,8.25
2023-05-18T18:26:23.104Z,8.32
2023-05-18T18:28:51.864Z,8.37
2023-05-18T18:31:21.345Z,8.34
2023-05-18T18:33:51.484Z,8.32
2023-05-18T18:36:19.180Z,8.33
2023-05-18T18:38:47.996Z,8.20
2023-05-18T18:41:17.489Z,8.23
2023-05-18T18:43:44.921Z,8.20
2023-05-18T18:46:12.433Z,8.27
2023-05-18T18:48:39.454Z,8.27
2023-05-18T18:51:06.456Z,8.26
2023-05-18T18:53:33.751Z,8.27
2023-05-18T18:56:02.872Z,8.27
2023-05-18T18:58:31.129Z,8.30
2023-05-18T19:00:58.552Z,8.29
2023-05-18T19:03:26.467Z,8.25
2023-05-18T19:05:53.551Z,8.20
2023-05-18T19:08:20.888Z,8.25
2023-05-18T19:10:50.678Z,8.29
2023-05-18T19:13:18.101Z,8.25
2023-05-18T19:15:45.636Z,8.30
2023-05-18T19:18:12.646Z,8.28
2023-05-18T19:20:39.578Z,8.29
2023-05-18T19:23:06.634Z,8.31
2023-05-18T19:25:33.776Z,8.18
2023-05-18T19:28:01.163Z,8.22
2023-05-18T19:30:28.468Z,8.23
2023-05-18T19:32:55.459Z,8.24
2023-05-18T19:35:26.374Z,8.20
2023-05-18T19:37:53.765Z,8.25
2023-05-18T19:40:22.964Z,8.21
2023-05-18T19:42:50.557Z,8.23
2023-05-18T19:46:17.735Z,8.14
2023-05-18T19:48:44.733Z,8.13
2023-05-18T19:51:11.982Z,8.14
2023-05-18T19:53:38.961Z,8.20
2023-05-18T19:56:06.321Z,8.24
2023-05-18T19:58:33.236Z,8.25
2023-05-18T20:01:00.276Z,8.30
2023-05-18T20:03:27.902Z,8.30
2023-05-18T20:05:56.536Z,8.30
2023-05-18T20:08:23.597Z,8.30
2023-05-18T20:10:50.692Z,8.32
2023-05-18T20:13:17.621Z,8.27
2023-05-18T20:15:44.928Z,8.34
2023-05-18T20:18:11.892Z,8.36
2023-05-18T20:20:38.914Z,8.26
2023-05-18T20:23:10.936Z,8.29
2023-05-18T20:25:38.240Z,8.28
2023-05-18T20:28:08.324Z,8.22
2023-05-18T20:30:35.352Z,8.26
2023-05-18T20:33:04.970Z,8.27
2023-05-18T20:35:32.852Z,8.26
2023-05-18T20:38:00.570Z,8.20
2023-05-18T20:40:31.046Z,8.13
2023-05-18T20:43:00.862Z,8.08
2023-05-18T20:45:30.052Z,8.06
2023-05-18T20:47:57.941Z,8.12
2023-05-18T20:50:24.970Z,8.13
2023-05-18T20:52:52.961Z,8.12
2023-05-18T20:55:20.174Z,8.15
2023-05-18T20:57:49.253Z,8.15
2023-05-18T21:00:17.518Z,8.20
2023-05-18T21:02:46.210Z,8.20
2023-05-18T21:05:14.388Z,8.20
2023-05-18T21:07:41.294Z,8.18
2023-05-18T21:10:09.768Z,8.16
2023-05-18T21:12:37.069Z,8.19
2023-05-18T21:15:04.675Z,8.14
2023-05-18T21:17:32.257Z,8.11
2023-05-18T21:19:59.228Z,8.12
2023-05-18T21:22:26.235Z,8.11
2023-05-18T21:24:53.191Z,8.08
2023-05-18T21:27:20.162Z,8.11
2023-05-18T21:29:47.098Z,8.08
2023-05-18T21:32:14.262Z,7.99
2023-05-18T21:34:43.467Z,8.01
2023-05-18T21:37:11.099Z,8.05
2023-05-18T21:39:38.128Z,8.00
2023-05-18T21:42:05.311Z,8.14
2023-05-18T21:44:33.303Z,8.10
2023-05-18T21:47:00.212Z,8.06
2023-05-18T21:49:27.162Z,8.07
2023-05-18T21:51:54.143Z,7.97
2023-05-18T21:54:21.158Z,7.94
2023-05-18T21:56:48.153Z,7.92
2023-05-18T21:59:15.094Z,7.95
2023-05-18T22:01:42.065Z,7.82
2023-05-18T22:04:09.127Z,7.86
2023-05-18T22:06:36.076Z,7.84
2023-05-18T22:09:03.081Z,7.74
2023-05-18T22:11:30.116Z,7.79
2023-05-18T22:13:57.086Z,7.79
2023-05-18T22:16:24.099Z,7.86
2023-05-18T22:18:51.142Z,7.88
2023-05-18T22:21:18.116Z,7.87
2023-05-18T22:23:45.033Z,7.83
2023-05-18T22:26:12.475Z,7.77
2023-05-18T22:28:39.452Z,7.75
2023-05-18T22:31:06.813Z,7.76
2023-05-18T22:33:33.836Z,7.76
2023-05-18T22:36:01.128Z,7.76
2023-05-18T22:38:28.063Z,7.77
2023-05-18T22:40:55.175Z,7.80
2023-05-18T22:43:22.550Z,7.77
2023-05-18T22:45:49.858Z,7.83
2023-05-18T22:48:16.943Z,7.84
2023-05-18T22:50:43.938Z,7.80
2023-05-18T22:53:12.224Z,7.77
2023-05-18T22:55:39.468Z,7.80
2023-05-18T22:58:06.441Z,7.76
2023-05-18T23:00:33.611Z,7.73
2023-05-18T23:03:00.913Z,7.69
2023-05-18T23:05:27.988Z,7.66
2023-05-18T23:07:58.140Z,7.66
2023-05-18T23:10:26.647Z,7.66
2023-05-18T23:12:55.932Z,7.69
2023-05-18T23:15:23.291Z,7.67
2023-05-18T23:17:50.562Z,7.55
2023-05-18T23:20:17.478Z,7.61
2023-05-18T23:22:44.628Z,7.63
2023-05-18T23:25:11.927Z,7.64
2023-05-18T23:27:38.851Z,7.69
2023-05-18T23:30:06.862Z,7.73
2023-05-18T23:32:35.378Z,7.66
2023-05-18T23:35:04.655Z,7.65
2023-05-18T23:37:35.848Z,7.72
2023-05-18T23:40:03.131Z,7.72
2023-05-18T23:42:30.776Z,7.67
2023-05-18T23:44:58.046Z,7.67
2023-05-18T23:47:25.323Z,7.64
2023-05-18T23:49:53.207Z,7.57
2023-05-18T23:52:23.276Z,7.60
2023-05-18T23:54:53.619Z,7.66
2023-05-18T23:57:21.213Z,7.60
2023-05-18T23:59:48.824Z,7.57
